YM Utopia — A8OR5 — position and weather

sailwx.info

Track history (hours):
 
Tides and Currents Weather Stations Pressure Air Temp Water Temp Dewpoint Dewpoint Depression Visibility Wind Speed Wind Dir Waves Ship Positions

YM Utopia

Last reported at 2018-Feb-08 18:30 UTC. Time now 2018-Feb-23 09:00 UTC.
Position N 43°02' E 009°35'.
Warning: this ship's position is 14 days out of date.

Length 333 m; draft 11.9 m.

Type: Ship (hazmat cat A). MMSI: 636013690.

Date/timePositionNaut miles runAvg speedWind from/ knotsBaromVisibWave heightAir tempDewpointWater temp
2018-Feb-08 18:30N 43°02' E 009°35'1020.3
2018-Feb-08 18:00N 43°12' E 009°30'1020.0
2018-Feb-08 17:30N 43°21' E 009°26'2019.9
2018-Feb-08 16:30N 43°40' E 009°17'4019.8
2018-Feb-08 14:30N 44°18' E 008°59'713.6
2018-Feb-08 14:00N 44°24' E 008°55'1 1.1
2018-Feb-08 13:30N 44°24' E 008°55'0 0.0
2018-Feb-08 13:00N 44°24' E 008°55'0 0.0
2018-Feb-08 12:30N 44°24' E 008°55'0 0.0
2018-Feb-08 11:30N 44°24' E 008°55'0 0.0
2018-Feb-08 11:00N 44°24' E 008°55'0 0.0
2018-Feb-08 10:30N 44°24' E 008°55'0 0.0
2018-Feb-08 10:00N 44°24' E 008°55'0 0.0
2018-Feb-08 09:30N 44°24' E 008°55'0 0.0
2018-Feb-08 09:00N 44°24' E 008°55'0 0.0
2018-Feb-08 08:30N 44°24' E 008°55'0 0.0
2018-Feb-08 08:00N 44°24' E 008°55'0 0.0
2018-Feb-08 07:30N 44°24' E 008°55'0 0.0
2018-Feb-08 07:00N 44°24' E 008°55'0 0.0
2018-Feb-08 06:30N 44°24' E 008°55'0 0.0
2018-Feb-08 05:00N 44°24' E 008°55'0 0.0
2018-Feb-08 03:00N 44°24' E 008°55'0 0.0
2018-Feb-08 02:30N 44°24' E 008°55'0 0.0
2018-Feb-08 01:30N 44°24' E 008°55'0 0.0
2018-Feb-08 01:00N 44°24' E 008°55'0 0.0
2018-Feb-08 00:30N 44°24' E 008°55'0 0.0
2018-Feb-08 00:00N 44°24' E 008°55'0 0.0
2018-Feb-07 23:30N 44°24' E 008°55'0 0.0
2018-Feb-07 23:00N 44°24' E 008°55'0 0.0
2018-Feb-07 22:30N 44°24' E 008°55'0 0.0
2018-Feb-07 22:00N 44°24' E 008°55'0 0.0
2018-Feb-07 21:30N 44°24' E 008°55'0 0.0
2018-Feb-07 09:30N 44°24' E 008°55'0 0.0
2018-Feb-07 09:00N 44°24' E 008°55'0 0.0
2018-Feb-07 08:30N 44°24' E 008°55'0 0.0
2018-Feb-07 08:00N 44°24' E 008°55'0 0.0
2018-Feb-07 07:30N 44°24' E 008°55'0 0.0
2018-Feb-07 07:00N 44°24' E 008°55'0 0.0
2018-Feb-07 06:30N 44°24' E 008°55'0 0.0
2018-Feb-07 06:00N 44°24' E 008°55'0 0.0
2018-Feb-07 05:27N 44°24' E 008°55'0 0.0
2018-Feb-07 05:00N 44°24' E 008°55'0 0.0
2018-Feb-07 04:30N 44°24' E 008°55'0 0.0
2018-Feb-07 04:00N 44°24' E 008°55'0 0.0
2018-Feb-07 03:30N 44°24' E 008°55'0 0.0
2018-Feb-07 03:00N 44°24' E 008°55'0 0.0
2018-Feb-07 02:30N 44°24' E 008°55'0 0.0
2018-Feb-07 02:00N 44°24' E 008°55'0 0.0
2018-Feb-07 01:30N 44°24' E 008°55'0 0.0
2018-Feb-07 00:57N 44°24' E 008°55'0 0.0
2018-Feb-07 00:30N 44°24' E 008°55'0 0.0
2018-Feb-07 00:00N 44°24' E 008°55'0 0.0
2018-Feb-06 23:30N 44°24' E 008°55'0 0.0
2018-Feb-06 23:00N 44°24' E 008°55'1 1.6
2018-Feb-06 22:30N 44°24' E 008°56'2 4.7
2018-Feb-06 22:00N 44°22' E 008°58'611.3
2018-Feb-06 21:30N 44°16' E 008°59'4 8.8
2018-Feb-06 21:00N 44°12' E 008°59'0 0.7
2018-Feb-06 20:30N 44°12' E 008°59'0 0.9
2018-Feb-06 20:00N 44°12' E 008°59'0 0.9
2018-Feb-06 19:30N 44°13' E 008°59'1 1.0
2018-Feb-06 19:00N 44°13' E 008°59'1 1.0
2018-Feb-06 18:30N 44°14' E 008°59'0 1.0
2018-Feb-06 18:00N 44°14' E 008°59'1 1.1
2018-Feb-06 17:30N 44°15' E 008°59'1 1.0
2018-Feb-06 17:00N 44°15' E 008°59'0 0.5
2018-Feb-06 16:30N 44°16' E 008°59'10 9.6
2018-Feb-06 15:30N 44°06' E 008°57'1 1.7
2018-Feb-06 15:00N 44°07' E 008°57'1 1.5
2018-Feb-06 14:30N 44°08' E 008°58'1 1.7
2018-Feb-06 14:00N 44°08' E 008°58'1 1.8
2018-Feb-06 13:30N 44°09' E 008°58'1 1.7
2018-Feb-06 13:00N 44°10' E 008°58'1 1.8
2018-Feb-06 12:30N 44°11' E 008°58'1 1.9
2018-Feb-06 12:00N 44°12' E 008°57'1 2.0
2018-Feb-06 11:30N 44°13' E 008°57'1 2.0
2018-Feb-06 11:00N 44°14' E 008°57'2 2.0
2018-Feb-06 10:00N 44°16' E 008°57'0 0.8
2018-Feb-06 09:30N 44°16' E 008°58'9 9.2
2018-Feb-06 08:30N 44°08' E 008°53'611.2
2018-Feb-06 08:00N 44°03' E 008°50'2311.2
2018-Feb-06 05:59N 43°42' E 008°37'1711.1
2018-Feb-06 04:30N 43°28' E 008°25'4011.5
2018-Feb-06 01:00N 43°10' E 007°36'611.6
2018-Feb-06 00:27N 43°07' E 007°28'1711.5
2018-Feb-05 22:57N 42°59' E 007°07'8310.4
2018-Feb-05 14:58N 43°02' E 005°13'611.8
2018-Feb-05 14:29N 43°06' E 005°08'611.9
2018-Feb-05 13:59N 43°11' E 005°02'611.5
2018-Feb-05 13:30N 43°16' E 004°60'10 9.5
2018-Feb-05 12:30N 43°24' E 004°53'2 3.0
2018-Feb-05 11:58N 43°25' E 004°51'0 0.0
2018-Feb-05 11:25N 43°25' E 004°51'0 0.0
2018-Feb-05 10:58N 43°25' E 004°51'0 0.0
2018-Feb-05 10:28N 43°25' E 004°51'0 0.0
2018-Feb-05 09:58N 43°25' E 004°51'0 0.0
2018-Feb-05 09:28N 43°25' E 004°51'0 0.0
2018-Feb-05 08:58N 43°25' E 004°51'0 0.0
2018-Feb-05 08:28N 43°25' E 004°51'0 0.0
2018-Feb-05 07:58N 43°25' E 004°51'0 0.0
2018-Feb-05 07:28N 43°25' E 004°51'0 0.0
2018-Feb-05 06:58N 43°25' E 004°51'0 0.0
2018-Feb-05 06:28N 43°25' E 004°51'0 0.0
2018-Feb-05 05:28N 43°25' E 004°51'0 0.0
2018-Feb-05 04:58N 43°25' E 004°51'0 0.0
2018-Feb-05 04:25N 43°25' E 004°51'0 0.0
2018-Feb-05 03:55N 43°25' E 004°51'0 0.0
2018-Feb-05 03:25N 43°25' E 004°51'0 0.0
2018-Feb-05 02:55N 43°25' E 004°51'0 0.0
2018-Feb-05 02:25N 43°25' E 004°51'0 0.0
2018-Feb-05 01:55N 43°25' E 004°51'0 0.0
2018-Feb-05 01:28N 43°25' E 004°51'0 0.0
2018-Feb-05 00:58N 43°25' E 004°51'0 0.0
2018-Feb-05 00:28N 43°25' E 004°51'0 0.0
2018-Feb-04 23:58N 43°25' E 004°51'0 0.0
2018-Feb-04 23:28N 43°25' E 004°51'0 0.0
2018-Feb-04 22:58N 43°25' E 004°51'0 0.0
2018-Feb-04 22:28N 43°25' E 004°51'0 0.0
2018-Feb-04 21:58N 43°25' E 004°51'0 0.0
2018-Feb-04 21:28N 43°25' E 004°51'0 0.0
2018-Feb-04 20:58N 43°25' E 004°51'0 0.0
2018-Feb-04 19:58N 43°25' E 004°51'0 0.0
2018-Feb-04 19:28N 43°25' E 004°51'0 0.0
2018-Feb-04 18:58N 43°25' E 004°51'0 0.0
2018-Feb-04 18:28N 43°25' E 004°51'0 0.0
2018-Feb-04 17:58N 43°25' E 004°51'0 0.0
2018-Feb-04 17:28N 43°25' E 004°51'0 0.0
2018-Feb-04 15:28N 43°25' E 004°51'0 0.0
2018-Feb-04 14:58N 43°25' E 004°51'0 0.0
2018-Feb-04 14:28N 43°25' E 004°51'0 0.0
2018-Feb-04 13:58N 43°25' E 004°51'0 0.0
2018-Feb-04 13:28N 43°25' E 004°51'0 0.0
2018-Feb-04 12:58N 43°25' E 004°51'0 0.0
2018-Feb-04 12:28N 43°25' E 004°51'0 0.0
2018-Feb-04 11:58N 43°25' E 004°51'0 0.0
2018-Feb-04 11:28N 43°25' E 004°51'0 0.0
2018-Feb-04 09:58N 43°25' E 004°51'0 0.0
2018-Feb-04 08:58N 43°25' E 004°51'0 0.0
2018-Feb-04 08:28N 43°25' E 004°51'0 0.0
2018-Feb-04 07:58N 43°25' E 004°51'0 0.0
2018-Feb-04 07:28N 43°25' E 004°51'0 0.0
2018-Feb-04 06:58N 43°25' E 004°51'0 0.0
2018-Feb-04 06:28N 43°25' E 004°51'0 0.0
2018-Feb-04 05:58N 43°25' E 004°51'0 0.0
2018-Feb-04 05:28N 43°25' E 004°51'0 0.0
2018-Feb-04 04:58N 43°25' E 004°51'0 0.0
2018-Feb-04 04:28N 43°25' E 004°51'0 0.0
2018-Feb-04 03:55N 43°25' E 004°51'0 0.0
2018-Feb-04 03:28N 43°25' E 004°51'0 0.0
2018-Feb-04 02:58N 43°25' E 004°51'0 0.0
2018-Feb-04 02:28N 43°25' E 004°51'0 0.0
2018-Feb-04 01:58N 43°25' E 004°51'0 0.0
2018-Feb-04 01:28N 43°25' E 004°51'0 0.0
2018-Feb-04 00:58N 43°25' E 004°51'0 0.0
2018-Feb-04 00:28N 43°25' E 004°51'0 0.0
2018-Feb-03 23:58N 43°25' E 004°51'0 0.0
2018-Feb-03 23:28N 43°25' E 004°51'0 0.0
2018-Feb-03 22:58N 43°25' E 004°51'0 0.0
2018-Feb-03 22:28N 43°25' E 004°51'0 0.0
2018-Feb-03 21:58N 43°25' E 004°51'0 0.0
2018-Feb-03 21:28N 43°25' E 004°51'0 0.0
2018-Feb-03 20:58N 43°25' E 004°51'0 0.0
2018-Feb-03 20:28N 43°25' E 004°51'0 0.0
2018-Feb-03 19:55N 43°25' E 004°51'0 0.0
2018-Feb-03 18:28N 43°25' E 004°51'0 0.0
2018-Feb-03 17:55N 43°25' E 004°51'0 0.0
2018-Feb-03 17:28N 43°25' E 004°51'0 0.0
2018-Feb-03 16:58N 43°25' E 004°51'0 0.0
2018-Feb-03 15:58N 43°25' E 004°51'0 0.0
2018-Feb-03 15:28N 43°25' E 004°51'0 0.0
2018-Feb-03 14:58N 43°25' E 004°51'0 0.0
2018-Feb-03 14:25N 43°25' E 004°51'0 0.0
2018-Feb-03 13:58N 43°25' E 004°51'0 0.0
2018-Feb-03 13:25N 43°25' E 004°51'0 0.0
2018-Feb-03 12:55N 43°25' E 004°51'0 0.0
2018-Feb-03 12:25N 43°25' E 004°51'0 0.0
2018-Feb-03 11:58N 43°25' E 004°51'0 0.0
2018-Feb-03 11:25N 43°25' E 004°51'0 0.0
2018-Feb-03 10:58N 43°25' E 004°51'0 0.0
2018-Feb-03 10:28N 43°25' E 004°51'0 0.0
2018-Feb-03 09:58N 43°25' E 004°51'0 0.0
2018-Feb-03 09:28N 43°25' E 004°51'0 0.0
2018-Feb-03 08:58N 43°25' E 004°51'0 0.0
2018-Feb-03 08:25N 43°25' E 004°51'0 0.0
2018-Feb-03 07:58N 43°25' E 004°51'0 0.0
2018-Feb-03 06:25N 43°25' E 004°51'0 0.0
2018-Feb-03 05:58N 43°25' E 004°51'0 0.0
2018-Feb-03 05:28N 43°25' E 004°51'0 0.0
2018-Feb-03 04:58N 43°25' E 004°51'0 0.0
2018-Feb-03 03:55N 43°25' E 004°51'0 0.1
2018-Feb-03 03:25N 43°25' E 004°51'9 6.4
2018-Feb-03 02:00N 43°18' E 004°60'3 5.7
2018-Feb-03 01:30N 43°16' E 005°01'5 9.1
2018-Feb-03 01:00N 43°11' E 005°03'5 9.1
2018-Feb-03 00:31N 43°08' E 004°59'5 9.6
2018-Feb-03 00:00N 43°04' E 004°54'13612.4
2018-Feb-02 13:03N 41°25' E 002°49'112.3
2018-Feb-02 12:58N 41°24' E 002°48'612.4
2018-Feb-02 12:30N 41°21' E 002°42'612.3
2018-Feb-02 12:00N 41°17' E 002°36'612.2
2018-Feb-02 11:30N 41°12' E 002°30'510.2
2018-Feb-02 11:00N 41°09' E 002°25'4 8.1
2018-Feb-02 10:30N 41°06' E 002°21'4 8.6
2018-Feb-02 10:00N 41°03' E 002°17'4 8.4
2018-Feb-02 09:30N 41°00' E 002°13'4 8.6
2018-Feb-02 09:00N 40°57' E 002°09'128 7.6
2018-Feb-01 16:02N 39°37' W 000°02'4 8.9
2018-Feb-01 15:35N 39°34' W 000°06'1 9.0
2018-Feb-01 15:27N 39°33' W 000°07'4 8.8
2018-Feb-01 15:00N 39°30' W 000°11'7 4.7
2018-Feb-01 13:28N 39°27' W 000°19'0 0.0
2018-Feb-01 12:58N 39°27' W 000°19'0 0.0
2018-Feb-01 12:28N 39°27' W 000°19'0 0.0
2018-Feb-01 11:58N 39°27' W 000°19'0 0.0
2018-Feb-01 10:58N 39°27' W 000°19'0 0.0
2018-Feb-01 10:28N 39°27' W 000°19'0 0.0
2018-Feb-01 09:58N 39°27' W 000°19'0 0.0
2018-Feb-01 09:28N 39°27' W 000°19'0 0.0
2018-Feb-01 08:58N 39°27' W 000°19'0 0.0
2018-Feb-01 08:28N 39°27' W 000°19'159 8.2
2018-Jan-31 13:00N 41°19' E 002°10'2 4.6
2018-Jan-31 12:30N 41°21' E 002°10'0 0.0
2018-Jan-31 11:59N 41°21' E 002°10'0 0.0
2018-Jan-31 11:29N 41°21' E 002°10'0 0.0
2018-Jan-31 10:56N 41°21' E 002°10'0 0.0
2018-Jan-31 10:29N 41°21' E 002°10'0 0.0
2018-Jan-31 09:59N 41°21' E 002°10'0 0.0
2018-Jan-31 09:29N 41°21' E 002°10'0 0.0
2018-Jan-31 08:59N 41°21' E 002°10'0 0.0
2018-Jan-31 08:29N 41°21' E 002°10'0 0.0
2018-Jan-31 07:59N 41°21' E 002°10'0 0.0
2018-Jan-31 07:29N 41°21' E 002°10'0 0.0
2018-Jan-31 06:59N 41°21' E 002°10'0 0.0
2018-Jan-31 06:29N 41°21' E 002°10'0 0.0
2018-Jan-31 05:59N 41°21' E 002°10'0 0.0
2018-Jan-31 05:29N 41°21' E 002°10'0 0.0
2018-Jan-31 04:59N 41°21' E 002°10'0 0.0
2018-Jan-31 04:29N 41°21' E 002°10'0 0.0
2018-Jan-31 03:59N 41°21' E 002°10'0 0.0
2018-Jan-31 03:29N 41°21' E 002°10'0 0.0
2018-Jan-31 02:59N 41°21' E 002°10'0 0.0
2018-Jan-31 02:29N 41°21' E 002°10'0 0.0
2018-Jan-31 01:59N 41°21' E 002°10'0 0.0
2018-Jan-31 01:29N 41°21' E 002°10'0 0.0
2018-Jan-31 00:59N 41°21' E 002°10'0 0.0
2018-Jan-30 23:59N 41°21' E 002°10'0 0.0
2018-Jan-30 23:30N 41°21' E 002°10'3 6.7
2018-Jan-30 23:00N 41°18' E 002°11'3 6.5
2018-Jan-30 22:30N 41°15' E 002°14'1010.1
2018-Jan-30 21:30N 41°13' E 002°27'613.1
2018-Jan-30 21:01N 41°11' E 002°35'5 0.6
2018-Jan-30 12:24N 41°10' E 002°29'0 0.0
2018-Jan-30 12:00N 41°10' E 002°29'0 0.2
2018-Jan-30 11:30N 41°10' E 002°29'0 0.3
2018-Jan-30 10:30N 41°10' E 002°29'1 0.7
2018-Jan-30 09:30N 41°10' E 002°30'3 5.5
2018-Jan-30 08:59N 41°09' E 002°33'  
Track history (hours):
 
Tides and Currents Weather Stations Pressure Air Temp Water Temp Dewpoint Dewpoint Depression Visibility Wind Speed Wind Dir Waves Ship Positions

YM Utopia

Last reported at 2018-Feb-08 18:30 UTC. Time now 2018-Feb-23 09:00 UTC.
Position N 43°02' E 009°35'.
Warning: this ship's position is 14 days out of date.

Length 333 m; draft 11.9 m.

Type: Ship (hazmat cat A). MMSI: 636013690.

Date/timePositionNaut miles runAvg speedWind from/ knotsBaromVisibWave heightAir tempDewpointWater temp
2018-Feb-08 18:30N 43°02' E 009°35'1020.3
2018-Feb-08 18:00N 43°12' E 009°30'1020.0
2018-Feb-08 17:30N 43°21' E 009°26'2019.9
2018-Feb-08 16:30N 43°40' E 009°17'4019.8
2018-Feb-08 14:30N 44°18' E 008°59'713.6
2018-Feb-08 14:00N 44°24' E 008°55'1 1.1
2018-Feb-08 13:30N 44°24' E 008°55'0 0.0
2018-Feb-08 13:00N 44°24' E 008°55'0 0.0
2018-Feb-08 12:30N 44°24' E 008°55'0 0.0
2018-Feb-08 11:30N 44°24' E 008°55'0 0.0
2018-Feb-08 11:00N 44°24' E 008°55'0 0.0
2018-Feb-08 10:30N 44°24' E 008°55'0 0.0
2018-Feb-08 10:00N 44°24' E 008°55'0 0.0
2018-Feb-08 09:30N 44°24' E 008°55'0 0.0
2018-Feb-08 09:00N 44°24' E 008°55'0 0.0
2018-Feb-08 08:30N 44°24' E 008°55'0 0.0
2018-Feb-08 08:00N 44°24' E 008°55'0 0.0
2018-Feb-08 07:30N 44°24' E 008°55'0 0.0
2018-Feb-08 07:00N 44°24' E 008°55'0 0.0
2018-Feb-08 06:30N 44°24' E 008°55'0 0.0
2018-Feb-08 05:00N 44°24' E 008°55'0 0.0
2018-Feb-08 03:00N 44°24' E 008°55'0 0.0
2018-Feb-08 02:30N 44°24' E 008°55'0 0.0
2018-Feb-08 01:30N 44°24' E 008°55'0 0.0
2018-Feb-08 01:00N 44°24' E 008°55'0 0.0
2018-Feb-08 00:30N 44°24' E 008°55'0 0.0
2018-Feb-08 00:00N 44°24' E 008°55'0 0.0
2018-Feb-07 23:30N 44°24' E 008°55'0 0.0
2018-Feb-07 23:00N 44°24' E 008°55'0 0.0
2018-Feb-07 22:30N 44°24' E 008°55'0 0.0
2018-Feb-07 22:00N 44°24' E 008°55'0 0.0
2018-Feb-07 21:30N 44°24' E 008°55'0 0.0
2018-Feb-07 09:30N 44°24' E 008°55'0 0.0
2018-Feb-07 09:00N 44°24' E 008°55'0 0.0
2018-Feb-07 08:30N 44°24' E 008°55'0 0.0
2018-Feb-07 08:00N 44°24' E 008°55'0 0.0
2018-Feb-07 07:30N 44°24' E 008°55'0 0.0
2018-Feb-07 07:00N 44°24' E 008°55'0 0.0
2018-Feb-07 06:30N 44°24' E 008°55'0 0.0
2018-Feb-07 06:00N 44°24' E 008°55'0 0.0
2018-Feb-07 05:27N 44°24' E 008°55'0 0.0
2018-Feb-07 05:00N 44°24' E 008°55'0 0.0
2018-Feb-07 04:30N 44°24' E 008°55'0 0.0
2018-Feb-07 04:00N 44°24' E 008°55'0 0.0
2018-Feb-07 03:30N 44°24' E 008°55'0 0.0
2018-Feb-07 03:00N 44°24' E 008°55'0 0.0
2018-Feb-07 02:30N 44°24' E 008°55'0 0.0
2018-Feb-07 02:00N 44°24' E 008°55'0 0.0
2018-Feb-07 01:30N 44°24' E 008°55'0 0.0
2018-Feb-07 00:57N 44°24' E 008°55'0 0.0
2018-Feb-07 00:30N 44°24' E 008°55'0 0.0
2018-Feb-07 00:00N 44°24' E 008°55'0 0.0
2018-Feb-06 23:30N 44°24' E 008°55'0 0.0
2018-Feb-06 23:00N 44°24' E 008°55'1 1.6
2018-Feb-06 22:30N 44°24' E 008°56'2 4.7
2018-Feb-06 22:00N 44°22' E 008°58'611.3
2018-Feb-06 21:30N 44°16' E 008°59'4 8.8
2018-Feb-06 21:00N 44°12' E 008°59'0 0.7
2018-Feb-06 20:30N 44°12' E 008°59'0 0.9
2018-Feb-06 20:00N 44°12' E 008°59'0 0.9
2018-Feb-06 19:30N 44°13' E 008°59'1 1.0
2018-Feb-06 19:00N 44°13' E 008°59'1 1.0
2018-Feb-06 18:30N 44°14' E 008°59'0 1.0
2018-Feb-06 18:00N 44°14' E 008°59'1 1.1
2018-Feb-06 17:30N 44°15' E 008°59'1 1.0
2018-Feb-06 17:00N 44°15' E 008°59'0 0.5
2018-Feb-06 16:30N 44°16' E 008°59'10 9.6
2018-Feb-06 15:30N 44°06' E 008°57'1 1.7
2018-Feb-06 15:00N 44°07' E 008°57'1 1.5
2018-Feb-06 14:30N 44°08' E 008°58'1 1.7
2018-Feb-06 14:00N 44°08' E 008°58'1 1.8
2018-Feb-06 13:30N 44°09' E 008°58'1 1.7
2018-Feb-06 13:00N 44°10' E 008°58'1 1.8
2018-Feb-06 12:30N 44°11' E 008°58'1 1.9
2018-Feb-06 12:00N 44°12' E 008°57'1 2.0
2018-Feb-06 11:30N 44°13' E 008°57'1 2.0
2018-Feb-06 11:00N 44°14' E 008°57'2 2.0
2018-Feb-06 10:00N 44°16' E 008°57'0 0.8
2018-Feb-06 09:30N 44°16' E 008°58'9 9.2
2018-Feb-06 08:30N 44°08' E 008°53'611.2
2018-Feb-06 08:00N 44°03' E 008°50'2311.2
2018-Feb-06 05:59N 43°42' E 008°37'1711.1
2018-Feb-06 04:30N 43°28' E 008°25'4011.5
2018-Feb-06 01:00N 43°10' E 007°36'611.6
2018-Feb-06 00:27N 43°07' E 007°28'1711.5
2018-Feb-05 22:57N 42°59' E 007°07'8310.4
2018-Feb-05 14:58N 43°02' E 005°13'611.8
2018-Feb-05 14:29N 43°06' E 005°08'611.9
2018-Feb-05 13:59N 43°11' E 005°02'611.5
2018-Feb-05 13:30N 43°16' E 004°60'10 9.5
2018-Feb-05 12:30N 43°24' E 004°53'2 3.0
2018-Feb-05 11:58N 43°25' E 004°51'0 0.0
2018-Feb-05 11:25N 43°25' E 004°51'0 0.0
2018-Feb-05 10:58N 43°25' E 004°51'0 0.0
2018-Feb-05 10:28N 43°25' E 004°51'0 0.0
2018-Feb-05 09:58N 43°25' E 004°51'0 0.0
2018-Feb-05 09:28N 43°25' E 004°51'0 0.0
2018-Feb-05 08:58N 43°25' E 004°51'0 0.0
2018-Feb-05 08:28N 43°25' E 004°51'0 0.0
2018-Feb-05 07:58N 43°25' E 004°51'0 0.0
2018-Feb-05 07:28N 43°25' E 004°51'0 0.0
2018-Feb-05 06:58N 43°25' E 004°51'0 0.0
2018-Feb-05 06:28N 43°25' E 004°51'0 0.0
2018-Feb-05 05:28N 43°25' E 004°51'0 0.0
2018-Feb-05 04:58N 43°25' E 004°51'0 0.0
2018-Feb-05 04:25N 43°25' E 004°51'0 0.0
2018-Feb-05 03:55N 43°25' E 004°51'0 0.0
2018-Feb-05 03:25N 43°25' E 004°51'0 0.0
2018-Feb-05 02:55N 43°25' E 004°51'0 0.0
2018-Feb-05 02:25N 43°25' E 004°51'0 0.0
2018-Feb-05 01:55N 43°25' E 004°51'0 0.0
2018-Feb-05 01:28N 43°25' E 004°51'0 0.0
2018-Feb-05 00:58N 43°25' E 004°51'0 0.0
2018-Feb-05 00:28N 43°25' E 004°51'0 0.0
2018-Feb-04 23:58N 43°25' E 004°51'0 0.0
2018-Feb-04 23:28N 43°25' E 004°51'0 0.0
2018-Feb-04 22:58N 43°25' E 004°51'0 0.0
2018-Feb-04 22:28N 43°25' E 004°51'0 0.0
2018-Feb-04 21:58N 43°25' E 004°51'0 0.0
2018-Feb-04 21:28N 43°25' E 004°51'0 0.0
2018-Feb-04 20:58N 43°25' E 004°51'0 0.0
2018-Feb-04 19:58N 43°25' E 004°51'0 0.0
2018-Feb-04 19:28N 43°25' E 004°51'0 0.0
2018-Feb-04 18:58N 43°25' E 004°51'0 0.0
2018-Feb-04 18:28N 43°25' E 004°51'0 0.0
2018-Feb-04 17:58N 43°25' E 004°51'0 0.0
2018-Feb-04 17:28N 43°25' E 004°51'0 0.0
2018-Feb-04 15:28N 43°25' E 004°51'0 0.0
2018-Feb-04 14:58N 43°25' E 004°51'0 0.0
2018-Feb-04 14:28N 43°25' E 004°51'0 0.0
2018-Feb-04 13:58N 43°25' E 004°51'0 0.0
2018-Feb-04 13:28N 43°25' E 004°51'0 0.0
2018-Feb-04 12:58N 43°25' E 004°51'0 0.0
2018-Feb-04 12:28N 43°25' E 004°51'0 0.0
2018-Feb-04 11:58N 43°25' E 004°51'0 0.0
2018-Feb-04 11:28N 43°25' E 004°51'0 0.0
2018-Feb-04 09:58N 43°25' E 004°51'0 0.0
2018-Feb-04 08:58N 43°25' E 004°51'0 0.0
2018-Feb-04 08:28N 43°25' E 004°51'0 0.0
2018-Feb-04 07:58N 43°25' E 004°51'0 0.0
2018-Feb-04 07:28N 43°25' E 004°51'0 0.0
2018-Feb-04 06:58N 43°25' E 004°51'0 0.0
2018-Feb-04 06:28N 43°25' E 004°51'0 0.0
2018-Feb-04 05:58N 43°25' E 004°51'0 0.0
2018-Feb-04 05:28N 43°25' E 004°51'0 0.0
2018-Feb-04 04:58N 43°25' E 004°51'0 0.0
2018-Feb-04 04:28N 43°25' E 004°51'0 0.0
2018-Feb-04 03:55N 43°25' E 004°51'0 0.0
2018-Feb-04 03:28N 43°25' E 004°51'0 0.0
2018-Feb-04 02:58N 43°25' E 004°51'0 0.0
2018-Feb-04 02:28N 43°25' E 004°51'0 0.0
2018-Feb-04 01:58N 43°25' E 004°51'0 0.0
2018-Feb-04 01:28N 43°25' E 004°51'0 0.0
2018-Feb-04 00:58N 43°25' E 004°51'0 0.0
2018-Feb-04 00:28N 43°25' E 004°51'0 0.0
2018-Feb-03 23:58N 43°25' E 004°51'0 0.0
2018-Feb-03 23:28N 43°25' E 004°51'0 0.0
2018-Feb-03 22:58N 43°25' E 004°51'0 0.0
2018-Feb-03 22:28N 43°25' E 004°51'0 0.0
2018-Feb-03 21:58N 43°25' E 004°51'0 0.0
2018-Feb-03 21:28N 43°25' E 004°51'0 0.0
2018-Feb-03 20:58N 43°25' E 004°51'0 0.0
2018-Feb-03 20:28N 43°25' E 004°51'0 0.0
2018-Feb-03 19:55N 43°25' E 004°51'0 0.0
2018-Feb-03 18:28N 43°25' E 004°51'0 0.0
2018-Feb-03 17:55N 43°25' E 004°51'0 0.0
2018-Feb-03 17:28N 43°25' E 004°51'0 0.0
2018-Feb-03 16:58N 43°25' E 004°51'0 0.0
2018-Feb-03 15:58N 43°25' E 004°51'0 0.0
2018-Feb-03 15:28N 43°25' E 004°51'0 0.0
2018-Feb-03 14:58N 43°25' E 004°51'0 0.0
2018-Feb-03 14:25N 43°25' E 004°51'0 0.0
2018-Feb-03 13:58N 43°25' E 004°51'0 0.0
2018-Feb-03 13:25N 43°25' E 004°51'0 0.0
2018-Feb-03 12:55N 43°25' E 004°51'0 0.0
2018-Feb-03 12:25N 43°25' E 004°51'0 0.0
2018-Feb-03 11:58N 43°25' E 004°51'0 0.0
2018-Feb-03 11:25N 43°25' E 004°51'0 0.0
2018-Feb-03 10:58N 43°25' E 004°51'0 0.0
2018-Feb-03 10:28N 43°25' E 004°51'0 0.0
2018-Feb-03 09:58N 43°25' E 004°51'0 0.0
2018-Feb-03 09:28N 43°25' E 004°51'0 0.0
2018-Feb-03 08:58N 43°25' E 004°51'0 0.0
2018-Feb-03 08:25N 43°25' E 004°51'0 0.0
2018-Feb-03 07:58N 43°25' E 004°51'0 0.0
2018-Feb-03 06:25N 43°25' E 004°51'0 0.0
2018-Feb-03 05:58N 43°25' E 004°51'0 0.0
2018-Feb-03 05:28N 43°25' E 004°51'0 0.0
2018-Feb-03 04:58N 43°25' E 004°51'0 0.0
2018-Feb-03 03:55N 43°25' E 004°51'0 0.1
2018-Feb-03 03:25N 43°25' E 004°51'9 6.4
2018-Feb-03 02:00N 43°18' E 004°60'3 5.7
2018-Feb-03 01:30N 43°16' E 005°01'5 9.1
2018-Feb-03 01:00N 43°11' E 005°03'5 9.1
2018-Feb-03 00:31N 43°08' E 004°59'5 9.6
2018-Feb-03 00:00N 43°04' E 004°54'13612.4
2018-Feb-02 13:03N 41°25' E 002°49'112.3
2018-Feb-02 12:58N 41°24' E 002°48'612.4
2018-Feb-02 12:30N 41°21' E 002°42'612.3
2018-Feb-02 12:00N 41°17' E 002°36'612.2
2018-Feb-02 11:30N 41°12' E 002°30'510.2
2018-Feb-02 11:00N 41°09' E 002°25'4 8.1
2018-Feb-02 10:30N 41°06' E 002°21'4 8.6
2018-Feb-02 10:00N 41°03' E 002°17'4 8.4
2018-Feb-02 09:30N 41°00' E 002°13'4 8.6
2018-Feb-02 09:00N 40°57' E 002°09'128 7.6
2018-Feb-01 16:02N 39°37' W 000°02'4 8.9
2018-Feb-01 15:35N 39°34' W 000°06'1 9.0
2018-Feb-01 15:27N 39°33' W 000°07'4 8.8
2018-Feb-01 15:00N 39°30' W 000°11'7 4.7
2018-Feb-01 13:28N 39°27' W 000°19'0 0.0
2018-Feb-01 12:58N 39°27' W 000°19'0 0.0
2018-Feb-01 12:28N 39°27' W 000°19'0 0.0
2018-Feb-01 11:58N 39°27' W 000°19'0 0.0
2018-Feb-01 10:58N 39°27' W 000°19'0 0.0
2018-Feb-01 10:28N 39°27' W 000°19'0 0.0
2018-Feb-01 09:58N 39°27' W 000°19'0 0.0
2018-Feb-01 09:28N 39°27' W 000°19'0 0.0
2018-Feb-01 08:58N 39°27' W 000°19'0 0.0
2018-Feb-01 08:28N 39°27' W 000°19'159 8.2
2018-Jan-31 13:00N 41°19' E 002°10'2 4.6
2018-Jan-31 12:30N 41°21' E 002°10'0 0.0
2018-Jan-31 11:59N 41°21' E 002°10'0 0.0
2018-Jan-31 11:29N 41°21' E 002°10'0 0.0
2018-Jan-31 10:56N 41°21' E 002°10'0 0.0
2018-Jan-31 10:29N 41°21' E 002°10'0 0.0
2018-Jan-31 09:59N 41°21' E 002°10'0 0.0
2018-Jan-31 09:29N 41°21' E 002°10'0 0.0
2018-Jan-31 08:59N 41°21' E 002°10'0 0.0
2018-Jan-31 08:29N 41°21' E 002°10'0 0.0
2018-Jan-31 07:59N 41°21' E 002°10'0 0.0
2018-Jan-31 07:29N 41°21' E 002°10'0 0.0
2018-Jan-31 06:59N 41°21' E 002°10'0 0.0
2018-Jan-31 06:29N 41°21' E 002°10'0 0.0
2018-Jan-31 05:59N 41°21' E 002°10'0 0.0
2018-Jan-31 05:29N 41°21' E 002°10'0 0.0
2018-Jan-31 04:59N 41°21' E 002°10'0 0.0
2018-Jan-31 04:29N 41°21' E 002°10'0 0.0
2018-Jan-31 03:59N 41°21' E 002°10'0 0.0
2018-Jan-31 03:29N 41°21' E 002°10'0 0.0
2018-Jan-31 02:59N 41°21' E 002°10'0 0.0
2018-Jan-31 02:29N 41°21' E 002°10'0 0.0
2018-Jan-31 01:59N 41°21' E 002°10'0 0.0
2018-Jan-31 01:29N 41°21' E 002°10'0 0.0
2018-Jan-31 00:59N 41°21' E 002°10'0 0.0
2018-Jan-30 23:59N 41°21' E 002°10'0 0.0
2018-Jan-30 23:30N 41°21' E 002°10'3 6.7
2018-Jan-30 23:00N 41°18' E 002°11'3 6.5
2018-Jan-30 22:30N 41°15' E 002°14'1010.1
2018-Jan-30 21:30N 41°13' E 002°27'613.1
2018-Jan-30 21:01N 41°11' E 002°35'5 0.6
2018-Jan-30 12:24N 41°10' E 002°29'0 0.0
2018-Jan-30 12:00N 41°10' E 002°29'0 0.2
2018-Jan-30 11:30N 41°10' E 002°29'0 0.3
2018-Jan-30 10:30N 41°10' E 002°29'1 0.7
2018-Jan-30 09:30N 41°10' E 002°30'3 5.5
2018-Jan-30 08:59N 41°09' E 002°33'  

Dump ship's entire track history